Time;durP1;ratioP1;P1;durP2;ratioP2;P2;SDS_P1;SDS_P2;PMS_P1;PMS_P2;Temp;Humidity;BMP_temperature;BMP_pressure;BME280_temperature;BME280_humidity;BME280_pressure;Samples;Min_cycle;Max_cycle;Signal;HPM_P1;HPM_P2
2022/12/11 00:02:07;;;;;;;0.10;0.10;;;;;;;;;;5052126;28;20036;-72
2022/12/11 00:04:32;;;;;;;0.10;0.10;;;;;;;;;;5052032;28;20039;-70
2022/12/11 00:06:58;;;;;;;0.10;0.10;;;;;;;;;;5052454;28;20049;-70
2022/12/11 00:09:23;;;;;;;0.30;0.30;;;;;;;;;;5051662;28;20065;-71
2022/12/11 00:11:49;;;;;;;0.35;0.35;;;;;;;;;;5052202;28;20024;-69
2022/12/11 00:14:14;;;;;;;0.65;0.45;;;;;;;;;;5051771;28;20064;-71
2022/12/11 00:16:40;;;;;;;1.13;1.00;;;;;;;;;;5017704;28;20021;-70
2022/12/11 00:19:06;;;;;;;0.38;0.35;;;;;;;;;;5051774;28;20024;-71
2022/12/11 00:21:31;;;;;;;0.10;0.10;;;;;;;;;;5051593;28;20029;-78
2022/12/11 00:23:57;;;;;;;0.10;0.10;;;;;;;;;;5034154;28;20051;-71
2022/12/11 00:26:23;;;;;;;0.10;0.10;;;;;;;;;;5054371;28;20054;-72
2022/12/11 00:28:52;;;;;;;0.10;0.10;;;;;;;;;;5020743;28;20040;-70
2022/12/11 00:31:18;;;;;;;0.10;0.10;;;;;;;;;;5019427;28;20013;-70
2022/12/11 00:33:44;;;;;;;0.15;0.15;;;;;;;;;;5035788;28;20030;-70
2022/12/11 00:36:17;;;;;;;0.10;0.10;;;;;;;;;;5035137;28;20033;-70
2022/12/11 00:38:43;;;;;;;0.15;0.15;;;;;;;;;;5040918;28;20026;-70
2022/12/11 00:41:09;;;;;;;0.40;0.40;;;;;;;;;;5043095;28;20036;-71
2022/12/11 00:43:34;;;;;;;0.65;0.47;;;;;;;;;;5046888;28;20044;-70
2022/12/11 00:46:00;;;;;;;0.30;0.30;;;;;;;;;;5017916;28;20436;-70
2022/12/11 00:48:25;;;;;;;2.05;0.93;;;;;;;;;;5039890;28;20024;-70
2022/12/11 00:50:51;;;;;;;2.53;1.17;;;;;;;;;;5055053;28;20024;-70
2022/12/11 00:53:16;;;;;;;4.25;1.98;;;;;;;;;;5033315;28;20373;-71
2022/12/11 00:55:43;;;;;;;0.20;0.20;;;;;;;;;;5030796;28;20023;-71
2022/12/11 00:58:09;;;;;;;2.75;1.13;;;;;;;;;;5054749;28;20037;-70
2022/12/11 01:00:34;;;;;;;0.10;0.10;;;;;;;;;;5037010;28;20029;-70
2022/12/11 01:03:00;;;;;;;0.10;0.10;;;;;;;;;;5053833;28;20099;-71
2022/12/11 01:05:25;;;;;;;0.10;0.10;;;;;;;;;;5054009;28;20051;-70
2022/12/11 01:07:51;;;;;;;0.10;0.10;;;;;;;;;;5054854;28;20109;-70
2022/12/11 01:10:25;;;;;;;0.10;0.10;;;;;;;;;;5054477;28;20032;-72
2022/12/11 01:13:01;;;;;;;0.10;0.10;;;;;;;;;;5054637;28;20551;-70
2022/12/11 01:15:32;;;;;;;0.10;0.10;;;;;;;;;;5036764;28;20496;-70
2022/12/11 01:17:57;;;;;;;0.52;0.30;;;;;;;;;;5054485;28;20029;-70
2022/12/11 01:20:24;;;;;;;0.10;0.10;;;;;;;;;;5054450;28;20032;-70
2022/12/11 01:22:53;;;;;;;0.10;0.10;;;;;;;;;;5053572;28;20392;-72
2022/12/11 01:25:19;;;;;;;1.33;1.25;;;;;;;;;;5020199;28;20036;-71
2022/12/11 01:27:44;;;;;;;0.10;0.10;;;;;;;;;;5054449;28;20033;-70
2022/12/11 01:30:10;;;;;;;0.57;0.55;;;;;;;;;;5055011;28;20035;-70
2022/12/11 01:32:35;;;;;;;0.45;0.45;;;;;;;;;;5055466;28;20029;-70
2022/12/11 01:35:04;;;;;;;0.10;0.10;;;;;;;;;;5053613;28;20113;-70
2022/12/11 01:37:30;;;;;;;0.10;0.10;;;;;;;;;;5054816;28;20025;-71
2022/12/11 01:39:55;;;;;;;0.10;0.10;;;;;;;;;;5054120;28;20455;-70
2022/12/11 01:42:21;;;;;;;0.10;0.10;;;;;;;;;;5054056;28;20040;-70
2022/12/11 01:44:46;;;;;;;0.20;0.10;;;;;;;;;;5054028;28;20029;-70
2022/12/11 01:47:12;;;;;;;0.10;0.10;;;;;;;;;;5054351;28;20025;-70
2022/12/11 01:49:39;;;;;;;0.47;0.43;;;;;;;;;;5053550;28;20013;-70
2022/12/11 01:52:04;;;;;;;0.10;0.10;;;;;;;;;;5053741;28;20025;-70
2022/12/11 01:54:30;;;;;;;0.10;0.10;;;;;;;;;;5053709;28;20029;-70
2022/12/11 01:57:00;;;;;;;0.10;0.10;;;;;;;;;;5053793;28;20055;-70
2022/12/11 01:59:27;;;;;;;0.10;0.10;;;;;;;;;;5053871;28;20021;-70
2022/12/11 02:01:58;;;;;;;0.10;0.10;;;;;;;;;;5019416;28;20530;-70
2022/12/11 02:04:24;;;;;;;0.10;0.10;;;;;;;;;;5053431;28;20036;-70
2022/12/11 02:06:50;;;;;;;1.27;1.23;;;;;;;;;;5052853;28;20049;-70
2022/12/11 02:09:18;;;;;;;0.10;0.10;;;;;;;;;;5035906;28;20028;-71
2022/12/11 02:12:02;;;;;;;0.20;0.20;;;;;;;;;;5036044;28;20432;-70
2022/12/11 02:14:31;;;;;;;0.10;0.10;;;;;;;;;;5053915;28;20357;-70
2022/12/11 02:17:05;;;;;;;0.10;0.10;;;;;;;;;;5047284;28;20048;-70
2022/12/11 02:19:49;;;;;;;0.60;0.60;;;;;;;;;;5037020;28;20044;-70
2022/12/11 02:22:26;;;;;;;0.10;0.10;;;;;;;;;;5035981;28;20559;-69
2022/12/11 02:25:17;;;;;;;0.10;0.10;;;;;;;;;;5053680;28;20049;-70
2022/12/11 02:27:44;;;;;;;0.10;0.10;;;;;;;;;;5029727;28;20052;-70
2022/12/11 02:30:12;;;;;;;0.10;0.10;;;;;;;;;;5053470;28;20107;-70
2022/12/11 02:32:57;;;;;;;0.10;0.10;;;;;;;;;;5053454;28;20028;-70
2022/12/11 02:35:34;;;;;;;0.10;0.10;;;;;;;;;;5034981;28;20476;-69
2022/12/11 02:38:06;;;;;;;0.10;0.10;;;;;;;;;;5035346;28;20404;-69
2022/12/11 02:40:34;;;;;;;0.10;0.10;;;;;;;;;;5035690;28;20036;-69
2022/12/11 02:43:01;;;;;;;0.10;0.10;;;;;;;;;;5035205;28;20032;-70
2022/12/11 02:45:27;;;;;;;0.85;0.85;;;;;;;;;;5055593;28;20021;-70
2022/12/11 02:47:54;;;;;;;0.10;0.10;;;;;;;;;;5059750;28;20087;-70
2022/12/11 02:50:22;;;;;;;0.10;0.10;;;;;;;;;;5041465;28;20025;-70
2022/12/11 02:52:48;;;;;;;0.10;0.10;;;;;;;;;;5041738;28;20029;-70
2022/12/11 02:55:14;;;;;;;0.17;0.17;;;;;;;;;;5041941;28;20029;-70
2022/12/11 02:57:46;;;;;;;0.63;0.63;;;;;;;;;;5041889;28;20040;-70
2022/12/11 03:00:12;;;;;;;0.40;0.40;;;;;;;;;;5059780;28;20021;-70
2022/12/11 03:02:39;;;;;;;1.13;0.75;;;;;;;;;;5059595;28;20068;-70
2022/12/11 03:05:04;;;;;;;0.60;0.60;;;;;;;;;;5058820;28;20033;-70
2022/12/11 03:07:35;;;;;;;0.80;0.80;;;;;;;;;;5059473;28;20037;-69
2022/12/11 03:10:00;;;;;;;0.13;0.13;;;;;;;;;;5059571;28;20090;-69
2022/12/11 03:12:28;;;;;;;0.40;0.32;;;;;;;;;;5041775;28;20025;-69
2022/12/11 03:14:54;;;;;;;0.10;0.10;;;;;;;;;;5059563;28;20029;-70
2022/12/11 03:17:25;;;;;;;0.10;0.10;;;;;;;;;;5025027;28;20025;-70
2022/12/11 03:20:11;;;;;;;0.10;0.10;;;;;;;;;;5058773;28;20029;-70
2022/12/11 03:22:43;;;;;;;0.10;0.10;;;;;;;;;;5041805;28;20033;-70
2022/12/11 03:25:11;;;;;;;0.10;0.10;;;;;;;;;;5041645;28;20488;-70
2022/12/11 03:27:39;;;;;;;0.95;0.75;;;;;;;;;;5059435;28;20035;-70
2022/12/11 03:30:12;;;;;;;0.10;0.10;;;;;;;;;;5059492;28;20484;-70
2022/12/11 03:32:45;;;;;;;0.10;0.10;;;;;;;;;;5059167;28;20052;-70
2022/12/11 03:35:10;;;;;;;0.10;0.10;;;;;;;;;;5040959;28;20033;-70
2022/12/11 03:37:38;;;;;;;0.10;0.10;;;;;;;;;;5041490;28;20142;-71
2022/12/11 03:40:08;;;;;;;0.10;0.10;;;;;;;;;;5059187;28;20484;-70
2022/12/11 03:42:34;;;;;;;0.10;0.10;;;;;;;;;;5041424;28;20070;-70
2022/12/11 03:45:01;;;;;;;0.40;0.40;;;;;;;;;;5059136;28;20045;-72
2022/12/11 03:47:27;;;;;;;0.10;0.10;;;;;;;;;;5059461;28;20112;-70
2022/12/11 03:49:53;;;;;;;0.30;0.30;;;;;;;;;;5059185;28;20104;-70
2022/12/11 03:52:19;;;;;;;0.20;0.20;;;;;;;;;;5059350;28;20126;-70
2022/12/11 03:54:45;;;;;;;0.20;0.20;;;;;;;;;;5058508;28;20076;-71
2022/12/11 03:57:12;;;;;;;0.32;0.32;;;;;;;;;;5059816;28;20028;-71
2022/12/11 03:59:37;;;;;;;1.65;1.10;;;;;;;;;;5075985;28;20465;-72
2022/12/11 04:02:09;;;;;;;0.10;0.10;;;;;;;;;;5039045;28;20021;-71
2022/12/11 04:04:38;;;;;;;0.20;0.20;;;;;;;;;;5032593;28;20396;-72
2022/12/11 04:07:03;;;;;;;2.30;1.27;;;;;;;;;;5046879;28;20048;-72
2022/12/11 04:09:29;;;;;;;0.10;0.10;;;;;;;;;;5034041;28;20104;-71
2022/12/11 04:11:54;;;;;;;0.10;0.10;;;;;;;;;;5051834;28;20079;-70
2022/12/11 04:25:29;;;;;;;0.10;0.10;;;;;;;;;;5033748;28;20044;-70
2022/12/11 04:27:55;;;;;;;0.10;0.10;;;;;;;;;;5033922;28;20036;-78
2022/12/11 04:30:21;;;;;;;0.10;0.10;;;;;;;;;;5051916;28;20033;-71
2022/12/11 04:32:47;;;;;;;0.10;0.10;;;;;;;;;;5051816;28;20090;-70
2022/12/11 04:35:13;;;;;;;0.10;0.10;;;;;;;;;;5051438;28;20364;-71
2022/12/11 04:37:39;;;;;;;0.10;0.10;;;;;;;;;;5033242;28;20020;-70
2022/12/11 04:40:05;;;;;;;0.10;0.10;;;;;;;;;;5051401;28;20075;-71
2022/12/11 04:42:30;;;;;;;0.90;0.90;;;;;;;;;;5051733;28;20025;-72
2022/12/11 04:44:56;;;;;;;0.10;0.10;;;;;;;;;;5033761;28;20036;-77
2022/12/11 04:47:21;;;;;;;0.10;0.10;;;;;;;;;;5051084;28;20106;-71
2022/12/11 04:49:47;;;;;;;0.10;0.10;;;;;;;;;;5032707;28;20104;-71
2022/12/11 04:52:12;;;;;;;0.10;0.10;;;;;;;;;;5051290;28;20014;-71
2022/12/11 04:54:38;;;;;;;0.10;0.10;;;;;;;;;;5051311;28;20025;-71
2022/12/11 04:57:04;;;;;;;0.10;0.10;;;;;;;;;;5033512;28;20032;-72
2022/12/11 04:59:30;;;;;;;0.10;0.10;;;;;;;;;;5051089;28;20029;-71
2022/12/11 05:01:56;;;;;;;0.10;0.10;;;;;;;;;;5032487;28;20037;-71
2022/12/11 05:04:21;;;;;;;0.10;0.10;;;;;;;;;;5032160;28;20048;-71
2022/12/11 05:06:48;;;;;;;0.10;0.10;;;;;;;;;;5050897;28;20049;-71
2022/12/11 05:09:13;;;;;;;0.10;0.10;;;;;;;;;;5049485;28;20021;-71
2022/12/11 05:11:38;;;;;;;0.10;0.10;;;;;;;;;;5050032;28;20033;-71
2022/12/11 05:14:04;;;;;;;0.10;0.10;;;;;;;;;;5050934;28;20070;-70
2022/12/11 05:16:29;;;;;;;0.10;0.10;;;;;;;;;;5033061;28;20029;-70
2022/12/11 05:18:55;;;;;;;0.10;0.10;;;;;;;;;;5050473;28;20033;-70
2022/12/11 05:21:20;;;;;;;0.10;0.10;;;;;;;;;;5050148;28;20029;-70
2022/12/11 05:23:46;;;;;;;0.10;0.10;;;;;;;;;;5015801;28;20041;-70
2022/12/11 05:26:13;;;;;;;0.10;0.10;;;;;;;;;;5050392;28;20049;-74
2022/12/11 05:28:39;;;;;;;0.10;0.10;;;;;;;;;;5050755;28;20386;-70
2022/12/11 05:31:11;;;;;;;1.80;0.50;;;;;;;;;;5050481;28;20028;-73
2022/12/11 05:33:38;;;;;;;0.45;0.30;;;;;;;;;;5016081;28;20036;-72
2022/12/11 05:36:05;;;;;;;7.30;1.63;;;;;;;;;;5050292;28;20024;-72
2022/12/11 05:38:30;;;;;;;6.97;4.90;;;;;;;;;;5016211;28;20021;-70
2022/12/11 05:40:56;;;;;;;2.50;0.85;;;;;;;;;;5032874;28;20033;-70
2022/12/11 05:43:22;;;;;;;5.65;1.88;;;;;;;;;;5049795;28;20035;-71
2022/12/11 05:45:47;;;;;;;1.30;1.20;;;;;;;;;;5049366;28;20025;-70
2022/12/11 05:48:12;;;;;;;0.20;0.20;;;;;;;;;;5049281;28;20040;-71
2022/12/11 05:50:38;;;;;;;0.20;0.20;;;;;;;;;;5032260;28;20033;-72
2022/12/11 05:53:05;;;;;;;0.40;0.35;;;;;;;;;;5031742;28;20039;-76
2022/12/11 05:55:34;;;;;;;4.05;1.20;;;;;;;;;;5049769;28;20028;-72
2022/12/11 05:58:00;;;;;;;12.88;1.17;;;;;;;;;;5049879;28;20128;-71
2022/12/11 06:00:25;;;;;;;16.38;3.47;;;;;;;;;;5029418;28;20104;-71
2022/12/11 06:02:51;;;;;;;18.48;4.05;;;;;;;;;;5025480;28;20053;-70
2022/12/11 06:05:16;;;;;;;11.60;3.50;;;;;;;;;;5048338;28;20048;-70
2022/12/11 06:07:41;;;;;;;5.15;1.25;;;;;;;;;;5049504;28;20024;-70
2022/12/11 06:10:07;;;;;;;10.05;2.75;;;;;;;;;;5047452;28;20070;-72
2022/12/11 06:12:33;;;;;;;1.42;0.43;;;;;;;;;;5049431;28;20112;-71
2022/12/11 06:14:58;;;;;;;19.60;2.53;;;;;;;;;;5049699;28;20047;-84
2022/12/11 06:17:23;;;;;;;14.27;2.78;;;;;;;;;;5049444;28;20074;-71
2022/12/11 06:19:49;;;;;;;10.88;2.35;;;;;;;;;;5031399;28;20464;-72
2022/12/11 06:22:15;;;;;;;11.88;3.67;;;;;;;;;;5013973;28;20029;-74
2022/12/11 06:24:40;;;;;;;9.45;2.95;;;;;;;;;;5048844;28;20048;-70
2022/12/11 06:27:06;;;;;;;8.15;2.38;;;;;;;;;;5050048;28;20025;-72
2022/12/11 06:29:31;;;;;;;4.55;1.55;;;;;;;;;;5050835;28;20140;-72
2022/12/11 06:31:57;;;;;;;15.48;3.83;;;;;;;;;;5048455;28;20021;-71
2022/12/11 06:34:22;;;;;;;11.88;2.72;;;;;;;;;;5049068;28;20086;-76
2022/12/11 06:36:47;;;;;;;7.07;3.20;;;;;;;;;;5049487;28;20483;-73
2022/12/11 06:39:13;;;;;;;3.08;0.88;;;;;;;;;;5048074;28;20020;-73
2022/12/11 06:41:38;;;;;;;12.05;3.25;;;;;;;;;;5031437;28;20029;-72
2022/12/11 06:44:04;;;;;;;12.48;4.00;;;;;;;;;;5049437;28;20077;-71
2022/12/11 06:46:29;;;;;;;7.90;1.77;;;;;;;;;;5048646;28;20025;-71
2022/12/11 06:48:55;;;;;;;13.57;2.90;;;;;;;;;;5031470;28;20033;-70
2022/12/11 06:51:21;;;;;;;0.43;0.28;;;;;;;;;;5047330;28;20033;-69
2022/12/11 06:53:51;;;;;;;17.30;3.25;;;;;;;;;;5049075;28;20377;-76
2022/12/11 06:56:16;;;;;;;0.88;0.85;;;;;;;;;;5031248;28;20026;-72
2022/12/11 06:58:42;;;;;;;31.95;3.80;;;;;;;;;;5047808;28;20098;-71
2022/12/11 07:01:18;;;;;;;26.65;3.00;;;;;;;;;;5014253;28;20465;-72
2022/12/11 07:03:44;;;;;;;4.45;1.33;;;;;;;;;;5048086;28;20036;-71
2022/12/11 07:06:09;;;;;;;10.93;2.10;;;;;;;;;;5014950;28;20462;-72
2022/12/11 07:08:35;;;;;;;12.00;2.45;;;;;;;;;;5049360;28;20468;-73
2022/12/11 07:11:04;;;;;;;20.50;2.15;;;;;;;;;;5047575;28;20384;-71
2022/12/11 07:13:30;;;;;;;13.10;3.13;;;;;;;;;;5048755;28;20041;-71
2022/12/11 07:15:56;;;;;;;6.65;1.80;;;;;;;;;;5048922;28;20040;-70
2022/12/11 07:18:22;;;;;;;1.88;0.68;;;;;;;;;;5030628;28;20029;-71
2022/12/11 07:20:47;;;;;;;10.80;2.53;;;;;;;;;;5049631;28;20033;-71
2022/12/11 07:23:12;;;;;;;11.88;2.92;;;;;;;;;;5047325;28;20491;-76
2022/12/11 07:25:38;;;;;;;20.33;3.03;;;;;;;;;;5047193;28;20407;-77
2022/12/11 07:28:03;;;;;;;11.10;2.80;;;;;;;;;;5048874;28;20349;-71
2022/12/11 07:30:29;;;;;;;2.40;1.00;;;;;;;;;;5031351;28;20033;-80
2022/12/11 07:32:54;;;;;;;7.68;2.33;;;;;;;;;;5050781;28;20391;-80
2022/12/11 07:35:20;;;;;;;7.50;2.47;;;;;;;;;;5051373;28;20478;-76
2022/12/11 07:37:45;;;;;;;15.00;2.63;;;;;;;;;;5052243;28;20036;-72
2022/12/11 07:40:11;;;;;;;6.45;1.85;;;;;;;;;;5051989;28;20033;-76
2022/12/11 07:42:37;;;;;;;9.20;1.65;;;;;;;;;;5052742;28;20479;-72
2022/12/11 07:45:02;;;;;;;7.97;1.88;;;;;;;;;;5052552;28;20098;-78
2022/12/11 07:47:28;;;;;;;0.60;0.40;;;;;;;;;;5051729;28;20025;-72
2022/12/11 07:49:53;;;;;;;0.22;0.13;;;;;;;;;;5052355;28;20021;-72
2022/12/11 07:52:19;;;;;;;0.43;0.43;;;;;;;;;;5052329;28;20079;-71
2022/12/11 07:54:44;;;;;;;6.55;1.95;;;;;;;;;;5052115;28;20039;-72
2022/12/11 07:57:09;;;;;;;6.32;1.38;;;;;;;;;;5035031;28;20108;-71
2022/12/11 07:59:35;;;;;;;12.55;3.80;;;;;;;;;;5052325;28;20028;-71
2022/12/11 08:02:00;;;;;;;9.73;1.17;;;;;;;;;;5047275;28;20033;-71
2022/12/11 08:04:26;;;;;;;24.42;2.42;;;;;;;;;;5027799;28;20045;-73
2022/12/11 08:06:51;;;;;;;7.55;2.03;;;;;;;;;;5003482;28;20096;-71
2022/12/11 08:09:21;;;;;;;13.65;3.20;;;;;;;;;;5031810;28;20029;-75
2022/12/11 08:11:47;;;;;;;9.77;2.80;;;;;;;;;;5014346;28;20033;-73
2022/12/11 08:14:13;;;;;;;13.55;2.15;;;;;;;;;;5032340;28;20041;-71
2022/12/11 08:16:41;;;;;;;10.45;3.13;;;;;;;;;;5031999;28;20049;-73
2022/12/11 08:19:07;;;;;;;8.00;2.10;;;;;;;;;;5014219;28;20031;-71
2022/12/11 08:21:33;;;;;;;8.13;2.13;;;;;;;;;;5031821;28;20252;-71
2022/12/11 08:23:58;;;;;;;9.18;1.98;;;;;;;;;;5032124;28;20037;-71
2022/12/11 08:26:25;;;;;;;11.02;3.13;;;;;;;;;;5032494;28;20028;-71
2022/12/11 08:28:50;;;;;;;10.65;4.53;;;;;;;;;;5033605;28;20486;-71
2022/12/11 08:31:16;;;;;;;5.95;1.65;;;;;;;;;;5033559;28;20119;-71
2022/12/11 08:33:42;;;;;;;2.08;1.10;;;;;;;;;;5051293;28;20028;-72
2022/12/11 08:36:09;;;;;;;6.63;2.05;;;;;;;;;;5051472;28;20029;-72
2022/12/11 08:38:34;;;;;;;21.20;2.78;;;;;;;;;;5051646;28;20029;-73
2022/12/11 08:41:09;;;;;;;8.27;2.58;;;;;;;;;;5051385;28;20180;-74
2022/12/11 08:43:34;;;;;;;9.45;2.30;;;;;;;;;;5050781;28;20048;-74
2022/12/11 08:46:00;;;;;;;4.35;2.20;;;;;;;;;;5051265;28;20025;-72
2022/12/11 08:48:25;;;;;;;11.32;2.80;;;;;;;;;;5051051;28;20033;-72
2022/12/11 08:50:51;;;;;;;28.73;3.63;;;;;;;;;;5039847;28;20075;-72
2022/12/11 08:53:16;;;;;;;9.45;3.15;;;;;;;;;;5041345;28;20077;-73
2022/12/11 08:55:41;;;;;;;13.55;3.22;;;;;;;;;;5035281;28;20270;-71
2022/12/11 08:58:07;;;;;;;7.75;2.33;;;;;;;;;;5033286;28;20358;-78
2022/12/11 09:00:33;;;;;;;8.80;1.92;;;;;;;;;;5032171;28;20380;-72
2022/12/11 09:02:59;;;;;;;8.82;1.65;;;;;;;;;;5031884;28;20464;-72
2022/12/11 09:05:24;;;;;;;11.05;3.45;;;;;;;;;;5016238;28;20052;-72
2022/12/11 09:07:51;;;;;;;15.93;3.08;;;;;;;;;;5033564;28;20028;-72
2022/12/11 09:10:17;;;;;;;6.00;2.03;;;;;;;;;;5016672;28;20032;-76
2022/12/11 09:12:42;;;;;;;11.23;2.50;;;;;;;;;;5051147;28;20017;-73
2022/12/11 09:15:08;;;;;;;13.07;2.13;;;;;;;;;;5026461;28;20403;-73
2022/12/11 09:17:34;;;;;;;12.93;3.38;;;;;;;;;;5021438;28;20029;-73
2022/12/11 09:19:59;;;;;;;10.43;2.20;;;;;;;;;;5039903;28;20025;-72
2022/12/11 09:22:25;;;;;;;7.88;1.55;;;;;;;;;;5040868;28;20036;-74
2022/12/11 09:24:50;;;;;;;13.85;5.53;;;;;;;;;;5038887;28;20435;-72
2022/12/11 09:27:16;;;;;;;3.42;1.15;;;;;;;;;;5039930;28;20411;-76
2022/12/11 09:29:41;;;;;;;11.65;1.95;;;;;;;;;;5038068;28;20562;-72
2022/12/11 09:32:07;;;;;;;4.30;1.70;;;;;;;;;;5044294;28;20065;-70
2022/12/11 09:34:33;;;;;;;10.85;2.58;;;;;;;;;;5041640;28;20067;-70
2022/12/11 09:36:58;;;;;;;9.02;1.40;;;;;;;;;;5052311;28;20029;-70
2022/12/11 09:39:24;;;;;;;24.42;2.35;;;;;;;;;;5049793;28;20037;-69
2022/12/11 09:42:07;;;;;;;10.80;2.85;;;;;;;;;;5049497;28;20056;-71
2022/12/11 09:44:37;;;;;;;6.93;2.00;;;;;;;;;;5044016;28;20037;-72
2022/12/11 09:47:12;;;;;;;10.10;1.98;;;;;;;;;;5044994;28;20079;-71
2022/12/11 09:49:41;;;;;;;7.47;1.42;;;;;;;;;;5049355;28;20029;-69
2022/12/11 09:52:10;;;;;;;9.40;2.38;;;;;;;;;;5018480;28;20506;-70
2022/12/11 09:54:37;;;;;;;10.63;2.25;;;;;;;;;;5066717;28;20032;-70
2022/12/11 09:57:12;;;;;;;7.10;2.17;;;;;;;;;;5051870;28;20475;-70
2022/12/11 09:59:58;;;;;;;10.27;1.85;;;;;;;;;;5055540;28;20021;-70
2022/12/11 10:02:43;;;;;;;12.88;3.05;;;;;;;;;;5037728;28;20029;-70
2022/12/11 10:05:14;;;;;;;2.63;0.75;;;;;;;;;;5028842;28;20078;-70
2022/12/11 10:07:44;;;;;;;20.20;2.00;;;;;;;;;;5043230;28;20074;-70
2022/12/11 10:10:09;;;;;;;;;;;;;;;;;;5029862;28;20032;-70
2022/12/11 10:12:53;;;;;;;15.13;3.07;;;;;;;;;;5042178;28;19915;-70
2022/12/11 10:15:37;;;;;;;9.43;2.00;;;;;;;;;;5039304;28;20283;-73
2022/12/11 10:18:05;;;;;;;3.25;0.95;;;;;;;;;;5038520;28;20071;-69
2022/12/11 10:20:35;;;;;;;5.10;1.23;;;;;;;;;;5015738;28;20110;-70
2022/12/11 10:23:02;;;;;;;10.02;3.50;;;;;;;;;;5028714;28;20049;-69
2022/12/11 10:25:30;;;;;;;15.23;3.17;;;;;;;;;;5030616;28;20044;-67
2022/12/11 10:27:56;;;;;;;15.05;3.55;;;;;;;;;;5012604;28;20189;-69
2022/12/11 10:30:27;;;;;;;10.93;3.25;;;;;;;;;;5031980;28;20060;-70
2022/12/11 10:32:58;;;;;;;7.97;2.33;;;;;;;;;;5015747;28;20033;-69
2022/12/11 10:35:34;;;;;;;13.68;5.28;;;;;;;;;;5031843;28;20033;-72
2022/12/11 10:38:10;;;;;;;13.63;2.67;;;;;;;;;;5039554;28;20507;-71
2022/12/11 10:40:37;;;;;;;11.40;1.85;;;;;;;;;;4994309;28;20083;-69
2022/12/11 10:43:03;;;;;;;6.70;1.65;;;;;;;;;;4994164;28;20025;-71
2022/12/11 10:45:28;;;;;;;15.52;2.95;;;;;;;;;;5063181;28;20606;-74
2022/12/11 10:48:09;;;;;;;8.27;1.40;;;;;;;;;;5056029;28;20079;-70
2022/12/11 10:50:37;;;;;;;4.25;1.65;;;;;;;;;;5013931;28;20028;-69
2022/12/11 10:53:04;;;;;;;18.00;1.90;;;;;;;;;;5013240;28;20112;-71
2022/12/11 10:55:33;;;;;;;9.07;1.35;;;;;;;;;;5059843;28;20090;-70
2022/12/11 10:58:01;;;;;;;9.82;1.65;;;;;;;;;;5049768;28;20044;-70
2022/12/11 11:00:36;;;;;;;4.22;1.73;;;;;;;;;;5046348;28;20037;-75
2022/12/11 11:03:03;;;;;;;9.90;2.08;;;;;;;;;;5047452;28;20057;-72
2022/12/11 11:05:33;;;;;;;7.13;1.10;;;;;;;;;;5047073;28;20053;-71
2022/12/11 11:08:18;;;;;;;10.07;2.47;;;;;;;;;;5051783;28;20370;-74
2022/12/11 11:10:50;;;;;;;2.75;0.88;;;;;;;;;;5017127;28;20039;-71
2022/12/11 11:13:16;;;;;;;9.85;1.80;;;;;;;;;;5016024;28;20107;-70
2022/12/11 11:15:41;;;;;;;10.40;2.38;;;;;;;;;;5051292;28;20112;-71
2022/12/11 11:18:21;;;;;;;11.23;2.58;;;;;;;;;;5051070;28;20025;-71
2022/12/11 11:20:47;;;;;;;14.23;2.72;;;;;;;;;;5017323;28;20025;-73
2022/12/11 11:23:13;;;;;;;17.33;3.22;;;;;;;;;;5052273;28;20110;-72
2022/12/11 11:25:47;;;;;;;13.85;2.42;;;;;;;;;;5016660;28;20029;-70
2022/12/11 11:28:33;;;;;;;3.83;1.10;;;;;;;;;;5053009;28;20049;-69
2022/12/11 11:31:01;;;;;;;12.88;2.50;;;;;;;;;;5031231;28;20072;-70
2022/12/11 11:33:27;;;;;;;1.35;0.70;;;;;;;;;;5055013;28;20028;-70
2022/12/11 11:35:54;;;;;;;11.88;3.08;;;;;;;;;;5058045;28;20036;-74
2022/12/11 11:38:28;;;;;;;7.40;1.55;;;;;;;;;;5055433;28;20025;-71
2022/12/11 11:40:57;;;;;;;11.02;3.15;;;;;;;;;;5052580;28;20061;-69
2022/12/11 11:43:41;;;;;;;10.32;2.50;;;;;;;;;;5050556;28;20418;-70
2022/12/11 11:46:06;;;;;;;13.07;2.05;;;;;;;;;;5051144;28;20041;-75
2022/12/11 11:48:47;;;;;;;5.78;1.38;;;;;;;;;;5051734;28;20021;-70
2022/12/11 11:51:13;;;;;;;5.70;1.75;;;;;;;;;;5050045;28;20112;-70
2022/12/11 11:53:40;;;;;;;12.32;2.55;;;;;;;;;;5049706;28;20025;-69
2022/12/11 11:56:15;;;;;;;7.32;2.40;;;;;;;;;;5049479;28;20460;-69
2022/12/11 11:58:50;;;;;;;13.10;1.95;;;;;;;;;;5049485;28;20029;-70
2022/12/11 12:01:19;;;;;;;2.97;1.50;;;;;;;;;;5050091;28;20090;-70
2022/12/11 12:03:45;;;;;;;14.32;2.70;;;;;;;;;;5050433;28;20037;-68
2022/12/11 12:06:20;;;;;;;15.90;2.72;;;;;;;;;;5017262;28;20049;-70
2022/12/11 12:08:48;;;;;;;19.55;4.05;;;;;;;;;;5051910;28;20021;-69
2022/12/11 12:11:17;;;;;;;6.43;1.65;;;;;;;;;;5045609;28;20044;-71
2022/12/11 12:13:45;;;;;;;13.85;3.33;;;;;;;;;;5030826;28;20033;-70
2022/12/11 12:16:16;;;;;;;11.80;2.55;;;;;;;;;;5033962;28;20158;-74
2022/12/11 12:19:00;;;;;;;13.65;3.10;;;;;;;;;;5057248;28;20021;-69
2022/12/11 12:21:29;;;;;;;6.78;2.17;;;;;;;;;;5051504;28;20472;-71
2022/12/11 12:24:03;;;;;;;17.20;3.38;;;;;;;;;;5050350;28;20040;-71
2022/12/11 12:26:34;;;;;;;13.15;2.80;;;;;;;;;;5032848;28;20033;-72
2022/12/11 12:29:06;;;;;;;7.10;1.92;;;;;;;;;;5033550;28;20025;-70
2022/12/11 12:31:37;;;;;;;20.88;4.63;;;;;;;;;;5051435;28;20091;-72
2022/12/11 12:34:03;;;;;;;11.13;1.83;;;;;;;;;;5049952;28;20025;-71
2022/12/11 12:36:36;;;;;;;3.38;0.75;;;;;;;;;;5014363;28;20033;-73
2022/12/11 12:39:24;;;;;;;3.50;1.15;;;;;;;;;;5049592;28;20060;-71
2022/12/11 12:41:56;;;;;;;15.85;2.60;;;;;;;;;;5048477;28;20025;-71
2022/12/11 12:44:23;;;;;;;13.73;2.22;;;;;;;;;;5031686;28;20045;-70
2022/12/11 12:46:57;;;;;;;9.43;2.35;;;;;;;;;;5049303;28;20063;-70
2022/12/11 12:49:23;;;;;;;2.28;0.68;;;;;;;;;;5050697;28;20021;-69
2022/12/11 12:51:50;;;;;;;8.50;1.15;;;;;;;;;;5051769;28;20032;-69
2022/12/11 12:54:16;;;;;;;6.22;1.45;;;;;;;;;;5051214;28;20499;-71
2022/12/11 12:56:43;;;;;;;5.47;1.52;;;;;;;;;;5016910;28;20057;-70
2022/12/11 12:59:23;;;;;;;10.02;2.25;;;;;;;;;;5016733;28;20020;-70
2022/12/11 13:01:59;;;;;;;15.82;2.45;;;;;;;;;;5051626;28;20119;-69
2022/12/11 13:04:36;;;;;;;6.78;1.48;;;;;;;;;;5016910;28;20044;-70
2022/12/11 13:07:28;;;;;;;9.27;1.52;;;;;;;;;;5032971;28;20053;-75
2022/12/11 13:10:02;;;;;;;8.18;1.60;;;;;;;;;;5033364;28;20040;-71
2022/12/11 13:12:43;;;;;;;17.70;3.97;;;;;;;;;;5051321;28;20400;-71
2022/12/11 13:15:30;;;;;;;1.55;0.10;;;;;;;;;;5016629;28;20082;-70
2022/12/11 13:17:56;;;;;;;4.88;0.63;;;;;;;;;;5050835;28;20032;-71
2022/12/11 13:20:22;;;;;;;11.45;2.08;;;;;;;;;;5016715;28;20029;-70
2022/12/11 13:22:48;;;;;;;7.60;2.53;;;;;;;;;;5050882;28;20040;-75
2022/12/11 13:25:21;;;;;;;8.82;1.88;;;;;;;;;;5050829;28;20505;-69
2022/12/11 13:27:48;;;;;;;2.80;1.25;;;;;;;;;;5034909;28;20045;-70
2022/12/11 13:30:13;;;;;;;12.85;2.50;;;;;;;;;;5034237;28;20029;-69
2022/12/11 13:32:40;;;;;;;9.88;1.83;;;;;;;;;;5034977;28;20465;-70
2022/12/11 13:35:06;;;;;;;6.70;1.02;;;;;;;;;;5033021;28;20883;-70
2022/12/11 13:37:33;;;;;;;6.65;2.45;;;;;;;;;;5050320;28;20110;-69
2022/12/11 13:40:03;;;;;;;10.07;1.67;;;;;;;;;;5049448;28;20036;-68
2022/12/11 13:42:31;;;;;;;3.78;1.58;;;;;;;;;;5050280;28;20024;-69
2022/12/11 13:44:57;;;;;;;2.33;0.60;;;;;;;;;;5049554;28;20072;-70
2022/12/11 13:47:23;;;;;;;12.80;2.50;;;;;;;;;;5048141;28;20079;-71
2022/12/11 13:49:53;;;;;;;7.28;1.38;;;;;;;;;;5013939;28;20528;-71
2022/12/11 13:52:18;;;;;;;;;;;;;;;;;;5050413;28;20029;-70
2022/12/11 13:54:48;;;;;;;3.42;1.13;;;;;;;;;;5049897;28;19913;-70
2022/12/11 13:57:19;;;;;;;3.25;1.02;;;;;;;;;;5050151;28;20021;-72
2022/12/11 13:59:49;;;;;;;10.77;2.13;;;;;;;;;;5032122;28;20036;-72
2022/12/11 14:02:14;;;;;;;;;;;;;;;;;;5050469;28;20025;-74
2022/12/11 14:04:40;;;;;;;15.45;2.88;;;;;;;;;;5032490;28;19921;-70
2022/12/11 14:07:08;;;;;;;11.27;2.05;;;;;;;;;;5049745;28;20416;-71
2022/12/11 14:09:36;;;;;;;12.52;1.33;;;;;;;;;;5049770;28;20353;-71
2022/12/11 14:12:01;;;;;;;17.60;3.20;;;;;;;;;;5049437;28;20488;-70
2022/12/11 14:14:30;;;;;;;9.95;2.20;;;;;;;;;;5049507;28;20029;-69
2022/12/11 14:16:55;;;;;;;23.27;4.13;;;;;;;;;;5015418;28;20053;-70
2022/12/11 14:19:22;;;;;;;8.75;2.22;;;;;;;;;;5049339;28;20067;-69
2022/12/11 14:21:54;;;;;;;3.38;1.27;;;;;;;;;;5049679;28;20013;-68
2022/12/11 14:24:19;;;;;;;3.92;1.88;;;;;;;;;;5031687;28;20524;-70
2022/12/11 14:26:49;;;;;;;5.20;0.93;;;;;;;;;;5049598;28;20120;-71
2022/12/11 14:29:23;;;;;;;13.88;2.15;;;;;;;;;;5050124;28;20115;-70
2022/12/11 14:31:49;;;;;;;8.55;2.30;;;;;;;;;;5050406;28;20487;-70
2022/12/11 14:34:23;;;;;;;8.27;2.03;;;;;;;;;;5014993;28;20366;-70
2022/12/11 14:36:48;;;;;;;7.88;2.03;;;;;;;;;;5049706;28;20495;-70
2022/12/11 14:39:37;;;;;;;6.05;1.58;;;;;;;;;;5048833;28;20033;-75
2022/12/11 14:42:05;;;;;;;8.15;2.90;;;;;;;;;;5038901;28;20037;-71
2022/12/11 14:44:34;;;;;;;7.50;1.50;;;;;;;;;;5049428;28;20054;-70
2022/12/11 14:47:01;;;;;;;9.63;2.30;;;;;;;;;;5049373;28;20111;-76
2022/12/11 14:49:39;;;;;;;2.13;0.85;;;;;;;;;;5048658;28;20021;-70
2022/12/11 14:52:06;;;;;;;5.28;1.35;;;;;;;;;;5014780;28;20806;-69
2022/12/11 14:54:34;;;;;;;7.30;1.92;;;;;;;;;;5031416;28;20040;-70
2022/12/11 14:57:00;;;;;;;11.20;2.22;;;;;;;;;;5031207;28;20547;-71
2022/12/11 14:59:28;;;;;;;20.38;1.70;;;;;;;;;;5049097;28;20036;-72